sensor_id;sensor_type;location;lat;lon;timestamp;P1;durP1;ratioP1;P2;durP2;ratioP2
54881;SDS011;40775;51.448;4.742;2023-06-10T00:02:21;5.22;;;3.38;;
54881;SDS011;40775;51.448;4.742;2023-06-10T00:04:48;6.15;;;3.95;;
54881;SDS011;40775;51.448;4.742;2023-06-10T00:07:16;7.55;;;4.13;;
54881;SDS011;40775;51.448;4.742;2023-06-10T00:09:43;5.55;;;3.30;;
54881;SDS011;40775;51.448;4.742;2023-06-10T00:12:11;4.35;;;2.65;;
54881;SDS011;40775;51.448;4.742;2023-06-10T00:14:39;5.68;;;3.60;;
54881;SDS011;40775;51.448;4.742;2023-06-10T00:17:09;4.70;;;3.28;;
54881;SDS011;40775;51.448;4.742;2023-06-10T00:19:36;6.25;;;4.07;;
54881;SDS011;40775;51.448;4.742;2023-06-10T00:22:07;6.75;;;3.60;;
54881;SDS011;40775;51.448;4.742;2023-06-10T00:24:37;5.57;;;3.53;;
54881;SDS011;40775;51.448;4.742;2023-06-10T00:27:05;5.03;;;2.53;;
54881;SDS011;40775;51.448;4.742;2023-06-10T00:29:33;6.65;;;4.25;;
54881;SDS011;40775;51.448;4.742;2023-06-10T00:32:01;6.50;;;4.32;;
54881;SDS011;40775;51.448;4.742;2023-06-10T00:34:28;6.68;;;4.22;;
54881;SDS011;40775;51.448;4.742;2023-06-10T00:36:55;6.47;;;3.90;;
54881;SDS011;40775;51.448;4.742;2023-06-10T00:39:22;6.57;;;3.88;;
54881;SDS011;40775;51.448;4.742;2023-06-10T00:41:50;7.30;;;4.18;;
54881;SDS011;40775;51.448;4.742;2023-06-10T00:44:17;6.85;;;3.88;;
54881;SDS011;40775;51.448;4.742;2023-06-10T00:46:44;6.00;;;3.60;;
54881;SDS011;40775;51.448;4.742;2023-06-10T00:49:11;7.15;;;3.83;;
54881;SDS011;40775;51.448;4.742;2023-06-10T00:51:39;5.53;;;3.50;;
54881;SDS011;40775;51.448;4.742;2023-06-10T00:54:06;7.10;;;3.63;;
54881;SDS011;40775;51.448;4.742;2023-06-10T00:56:34;5.15;;;3.15;;
54881;SDS011;40775;51.448;4.742;2023-06-10T00:59:02;5.75;;;3.78;;
54881;SDS011;40775;51.448;4.742;2023-06-10T01:01:29;8.27;;;4.05;;
54881;SDS011;40775;51.448;4.742;2023-06-10T01:03:56;6.22;;;3.42;;
54881;SDS011;40775;51.448;4.742;2023-06-10T01:09:18;6.32;;;4.20;;
54881;SDS011;40775;51.448;4.742;2023-06-10T01:14:59;6.57;;;4.30;;
54881;SDS011;40775;51.448;4.742;2023-06-10T01:17:27;6.65;;;3.72;;
54881;SDS011;40775;51.448;4.742;2023-06-10T01:19:57;5.80;;;4.15;;
54881;SDS011;40775;51.448;4.742;2023-06-10T01:22:25;6.70;;;3.50;;
54881;SDS011;40775;51.448;4.742;2023-06-10T01:24:55;7.43;;;3.40;;
54881;SDS011;40775;51.448;4.742;2023-06-10T01:27:26;5.90;;;3.70;;
54881;SDS011;40775;51.448;4.742;2023-06-10T01:30:00;6.53;;;3.42;;
54881;SDS011;40775;51.448;4.742;2023-06-10T01:32:39;10.60;;;4.28;;
54881;SDS011;40775;51.448;4.742;2023-06-10T01:35:11;6.00;;;3.83;;
54881;SDS011;40775;51.448;4.742;2023-06-10T01:37:39;5.88;;;3.55;;
54881;SDS011;40775;51.448;4.742;2023-06-10T01:40:09;6.30;;;3.70;;
54881;SDS011;40775;51.448;4.742;2023-06-10T01:42:38;5.88;;;3.83;;
54881;SDS011;40775;51.448;4.742;2023-06-10T01:45:05;6.07;;;3.70;;
54881;SDS011;40775;51.448;4.742;2023-06-10T01:47:33;5.00;;;3.67;;
54881;SDS011;40775;51.448;4.742;2023-06-10T01:50:00;5.30;;;3.30;;
54881;SDS011;40775;51.448;4.742;2023-06-10T01:52:27;7.55;;;4.65;;
54881;SDS011;40775;51.448;4.742;2023-06-10T01:54:54;6.00;;;3.67;;
54881;SDS011;40775;51.448;4.742;2023-06-10T01:57:22;5.20;;;3.50;;
54881;SDS011;40775;51.448;4.742;2023-06-10T01:59:49;7.40;;;3.90;;
54881;SDS011;40775;51.448;4.742;2023-06-10T02:02:16;5.63;;;3.40;;
54881;SDS011;40775;51.448;4.742;2023-06-10T02:04:43;5.35;;;3.55;;
54881;SDS011;40775;51.448;4.742;2023-06-10T02:07:10;6.18;;;3.67;;
54881;SDS011;40775;51.448;4.742;2023-06-10T02:09:38;5.65;;;3.88;;
54881;SDS011;40775;51.448;4.742;2023-06-10T02:12:05;6.07;;;3.90;;
54881;SDS011;40775;51.448;4.742;2023-06-10T02:14:33;7.22;;;3.42;;
54881;SDS011;40775;51.448;4.742;2023-06-10T02:17:00;6.68;;;4.10;;
54881;SDS011;40775;51.448;4.742;2023-06-10T02:19:27;6.47;;;3.55;;
54881;SDS011;40775;51.448;4.742;2023-06-10T02:21:54;6.05;;;3.65;;
54881;SDS011;40775;51.448;4.742;2023-06-10T02:24:22;5.90;;;4.03;;
54881;SDS011;40775;51.448;4.742;2023-06-10T02:26:49;5.30;;;3.67;;
54881;SDS011;40775;51.448;4.742;2023-06-10T02:29:18;8.23;;;4.40;;
54881;SDS011;40775;51.448;4.742;2023-06-10T02:31:45;5.85;;;3.95;;
54881;SDS011;40775;51.448;4.742;2023-06-10T02:34:12;7.05;;;3.85;;
54881;SDS011;40775;51.448;4.742;2023-06-10T02:36:40;6.40;;;4.07;;
54881;SDS011;40775;51.448;4.742;2023-06-10T02:39:07;5.75;;;3.30;;
54881;SDS011;40775;51.448;4.742;2023-06-10T02:41:34;6.28;;;3.83;;
54881;SDS011;40775;51.448;4.742;2023-06-10T02:44:01;6.35;;;4.00;;
54881;SDS011;40775;51.448;4.742;2023-06-10T02:46:28;5.65;;;3.33;;
54881;SDS011;40775;51.448;4.742;2023-06-10T02:48:56;5.90;;;3.92;;
54881;SDS011;40775;51.448;4.742;2023-06-10T02:51:23;5.32;;;3.60;;
54881;SDS011;40775;51.448;4.742;2023-06-10T02:53:50;6.63;;;4.05;;
54881;SDS011;40775;51.448;4.742;2023-06-10T02:56:17;8.07;;;4.35;;
54881;SDS011;40775;51.448;4.742;2023-06-10T02:58:45;7.22;;;4.32;;
54881;SDS011;40775;51.448;4.742;2023-06-10T03:01:12;6.95;;;4.57;;
54881;SDS011;40775;51.448;4.742;2023-06-10T03:03:39;6.80;;;3.95;;
54881;SDS011;40775;51.448;4.742;2023-06-10T03:06:12;5.95;;;3.03;;
54881;SDS011;40775;51.448;4.742;2023-06-10T03:08:40;6.45;;;4.07;;
54881;SDS011;40775;51.448;4.742;2023-06-10T03:11:07;6.80;;;4.32;;
54881;SDS011;40775;51.448;4.742;2023-06-10T03:13:34;8.05;;;3.90;;
54881;SDS011;40775;51.448;4.742;2023-06-10T03:16:01;7.15;;;3.95;;
54881;SDS011;40775;51.448;4.742;2023-06-10T03:18:29;5.88;;;3.70;;
54881;SDS011;40775;51.448;4.742;2023-06-10T03:20:56;6.82;;;4.22;;
54881;SDS011;40775;51.448;4.742;2023-06-10T03:23:23;7.57;;;4.30;;
54881;SDS011;40775;51.448;4.742;2023-06-10T03:25:51;7.63;;;4.00;;
54881;SDS011;40775;51.448;4.742;2023-06-10T03:28:18;7.13;;;3.92;;
54881;SDS011;40775;51.448;4.742;2023-06-10T03:30:46;6.53;;;4.25;;
54881;SDS011;40775;51.448;4.742;2023-06-10T03:33:14;6.55;;;3.90;;
54881;SDS011;40775;51.448;4.742;2023-06-10T03:35:41;7.18;;;4.03;;
54881;SDS011;40775;51.448;4.742;2023-06-10T03:38:08;6.70;;;3.90;;
54881;SDS011;40775;51.448;4.742;2023-06-10T03:40:35;6.82;;;4.10;;
54881;SDS011;40775;51.448;4.742;2023-06-10T03:43:02;7.43;;;4.03;;
54881;SDS011;40775;51.448;4.742;2023-06-10T03:45:29;6.90;;;4.05;;
54881;SDS011;40775;51.448;4.742;2023-06-10T03:47:58;6.32;;;3.95;;
54881;SDS011;40775;51.448;4.742;2023-06-10T03:50:26;8.00;;;4.00;;
54881;SDS011;40775;51.448;4.742;2023-06-10T03:52:53;6.65;;;3.65;;
54881;SDS011;40775;51.448;4.742;2023-06-10T03:55:20;4.55;;;3.25;;
54881;SDS011;40775;51.448;4.742;2023-06-10T03:57:48;6.03;;;3.60;;
54881;SDS011;40775;51.448;4.742;2023-06-10T04:00:16;6.70;;;3.97;;
54881;SDS011;40775;51.448;4.742;2023-06-10T04:02:44;6.07;;;3.45;;
54881;SDS011;40775;51.448;4.742;2023-06-10T04:05:16;5.63;;;3.00;;
54881;SDS011;40775;51.448;4.742;2023-06-10T04:07:43;5.78;;;3.65;;
54881;SDS011;40775;51.448;4.742;2023-06-10T04:10:11;7.10;;;4.22;;
54881;SDS011;40775;51.448;4.742;2023-06-10T04:12:38;7.20;;;4.43;;
54881;SDS011;40775;51.448;4.742;2023-06-10T04:15:06;6.40;;;3.53;;
54881;SDS011;40775;51.448;4.742;2023-06-10T04:17:34;6.78;;;3.70;;
54881;SDS011;40775;51.448;4.742;2023-06-10T04:20:02;5.85;;;3.92;;
54881;SDS011;40775;51.448;4.742;2023-06-10T04:22:32;6.85;;;3.53;;
54881;SDS011;40775;51.448;4.742;2023-06-10T04:24:59;5.80;;;4.13;;
54881;SDS011;40775;51.448;4.742;2023-06-10T04:27:27;4.57;;;2.92;;
54881;SDS011;40775;51.448;4.742;2023-06-10T04:29:54;5.63;;;3.55;;
54881;SDS011;40775;51.448;4.742;2023-06-10T04:32:21;6.40;;;3.92;;
54881;SDS011;40775;51.448;4.742;2023-06-10T04:34:48;6.07;;;3.63;;
54881;SDS011;40775;51.448;4.742;2023-06-10T04:37:15;7.28;;;4.25;;
54881;SDS011;40775;51.448;4.742;2023-06-10T04:39:43;6.85;;;4.07;;
54881;SDS011;40775;51.448;4.742;2023-06-10T04:42:10;5.63;;;3.85;;
54881;SDS011;40775;51.448;4.742;2023-06-10T04:44:38;6.13;;;3.78;;
54881;SDS011;40775;51.448;4.742;2023-06-10T04:47:05;7.38;;;4.07;;
54881;SDS011;40775;51.448;4.742;2023-06-10T04:49:34;6.05;;;3.53;;
54881;SDS011;40775;51.448;4.742;2023-06-10T04:52:02;7.05;;;4.15;;
54881;SDS011;40775;51.448;4.742;2023-06-10T04:54:31;5.00;;;3.17;;
54881;SDS011;40775;51.448;4.742;2023-06-10T04:56:58;6.28;;;3.53;;
54881;SDS011;40775;51.448;4.742;2023-06-10T04:59:26;7.07;;;4.10;;
54881;SDS011;40775;51.448;4.742;2023-06-10T05:01:54;5.40;;;3.72;;
54881;SDS011;40775;51.448;4.742;2023-06-10T05:04:21;6.40;;;4.05;;
54881;SDS011;40775;51.448;4.742;2023-06-10T05:06:48;7.63;;;4.53;;
54881;SDS011;40775;51.448;4.742;2023-06-10T05:09:16;6.05;;;4.07;;
54881;SDS011;40775;51.448;4.742;2023-06-10T05:11:43;7.28;;;3.80;;
54881;SDS011;40775;51.448;4.742;2023-06-10T05:14:11;5.53;;;4.18;;
54881;SDS011;40775;51.448;4.742;2023-06-10T05:16:38;7.30;;;4.00;;
54881;SDS011;40775;51.448;4.742;2023-06-10T05:19:05;7.43;;;4.45;;
54881;SDS011;40775;51.448;4.742;2023-06-10T05:21:34;7.18;;;3.90;;
54881;SDS011;40775;51.448;4.742;2023-06-10T05:24:01;7.25;;;4.50;;
54881;SDS011;40775;51.448;4.742;2023-06-10T05:26:28;9.85;;;4.13;;
54881;SDS011;40775;51.448;4.742;2023-06-10T05:28:58;6.65;;;4.15;;
54881;SDS011;40775;51.448;4.742;2023-06-10T05:31:25;8.23;;;4.30;;
54881;SDS011;40775;51.448;4.742;2023-06-10T05:33:52;6.28;;;3.97;;
54881;SDS011;40775;51.448;4.742;2023-06-10T05:36:19;6.60;;;4.38;;
54881;SDS011;40775;51.448;4.742;2023-06-10T05:38:46;7.57;;;4.93;;
54881;SDS011;40775;51.448;4.742;2023-06-10T05:41:13;6.22;;;4.43;;
54881;SDS011;40775;51.448;4.742;2023-06-10T05:43:40;9.20;;;4.65;;
54881;SDS011;40775;51.448;4.742;2023-06-10T05:46:07;7.65;;;4.53;;
54881;SDS011;40775;51.448;4.742;2023-06-10T05:48:35;7.57;;;4.43;;
54881;SDS011;40775;51.448;4.742;2023-06-10T05:51:02;6.95;;;4.13;;
54881;SDS011;40775;51.448;4.742;2023-06-10T05:53:29;8.23;;;3.88;;
54881;SDS011;40775;51.448;4.742;2023-06-10T05:55:56;7.15;;;4.13;;
54881;SDS011;40775;51.448;4.742;2023-06-10T05:58:23;6.60;;;4.13;;
54881;SDS011;40775;51.448;4.742;2023-06-10T06:00:51;7.07;;;4.25;;
54881;SDS011;40775;51.448;4.742;2023-06-10T06:03:18;7.78;;;4.63;;
54881;SDS011;40775;51.448;4.742;2023-06-10T06:05:45;7.93;;;4.88;;
54881;SDS011;40775;51.448;4.742;2023-06-10T06:08:12;7.28;;;4.57;;
54881;SDS011;40775;51.448;4.742;2023-06-10T06:10:40;8.65;;;4.93;;
54881;SDS011;40775;51.448;4.742;2023-06-10T06:13:07;7.85;;;4.07;;
54881;SDS011;40775;51.448;4.742;2023-06-10T06:15:34;7.25;;;4.38;;
54881;SDS011;40775;51.448;4.742;2023-06-10T06:18:01;7.65;;;4.20;;
54881;SDS011;40775;51.448;4.742;2023-06-10T06:20:28;8.43;;;4.78;;
54881;SDS011;40775;51.448;4.742;2023-06-10T06:22:55;9.20;;;5.07;;
54881;SDS011;40775;51.448;4.742;2023-06-10T06:25:22;8.38;;;5.20;;
54881;SDS011;40775;51.448;4.742;2023-06-10T06:27:49;7.57;;;4.57;;
54881;SDS011;40775;51.448;4.742;2023-06-10T06:30:16;7.50;;;4.82;;
54881;SDS011;40775;51.448;4.742;2023-06-10T06:32:43;6.65;;;4.50;;
54881;SDS011;40775;51.448;4.742;2023-06-10T06:35:11;7.20;;;5.22;;
54881;SDS011;40775;51.448;4.742;2023-06-10T06:37:38;6.45;;;4.05;;
54881;SDS011;40775;51.448;4.742;2023-06-10T06:40:05;6.88;;;4.40;;
54881;SDS011;40775;51.448;4.742;2023-06-10T06:42:33;7.40;;;4.30;;
54881;SDS011;40775;51.448;4.742;2023-06-10T06:45:00;6.30;;;3.90;;
54881;SDS011;40775;51.448;4.742;2023-06-10T06:47:28;6.97;;;4.22;;
54881;SDS011;40775;51.448;4.742;2023-06-10T06:49:55;5.68;;;3.78;;
54881;SDS011;40775;51.448;4.742;2023-06-10T06:52:22;7.75;;;4.13;;
54881;SDS011;40775;51.448;4.742;2023-06-10T06:54:49;7.50;;;4.70;;
54881;SDS011;40775;51.448;4.742;2023-06-10T06:57:16;7.80;;;3.97;;
54881;SDS011;40775;51.448;4.742;2023-06-10T06:59:44;7.43;;;4.47;;
54881;SDS011;40775;51.448;4.742;2023-06-10T07:02:11;6.63;;;4.57;;
54881;SDS011;40775;51.448;4.742;2023-06-10T07:04:38;7.43;;;4.63;;
54881;SDS011;40775;51.448;4.742;2023-06-10T07:07:07;6.60;;;4.38;;
54881;SDS011;40775;51.448;4.742;2023-06-10T07:09:35;6.47;;;4.18;;
54881;SDS011;40775;51.448;4.742;2023-06-10T07:12:03;6.75;;;4.38;;
54881;SDS011;40775;51.448;4.742;2023-06-10T07:14:31;7.28;;;4.65;;
54881;SDS011;40775;51.448;4.742;2023-06-10T07:16:59;6.45;;;4.50;;
54881;SDS011;40775;51.448;4.742;2023-06-10T07:19:26;6.53;;;3.92;;
54881;SDS011;40775;51.448;4.742;2023-06-10T07:21:53;7.45;;;4.20;;
54881;SDS011;40775;51.448;4.742;2023-06-10T07:24:20;6.70;;;4.28;;
54881;SDS011;40775;51.448;4.742;2023-06-10T07:26:47;7.28;;;4.07;;
54881;SDS011;40775;51.448;4.742;2023-06-10T07:29:14;7.50;;;4.28;;
54881;SDS011;40775;51.448;4.742;2023-06-10T07:31:41;6.88;;;4.32;;
54881;SDS011;40775;51.448;4.742;2023-06-10T07:34:08;6.25;;;3.75;;
54881;SDS011;40775;51.448;4.742;2023-06-10T07:36:36;6.93;;;4.43;;
54881;SDS011;40775;51.448;4.742;2023-06-10T07:39:03;6.25;;;3.65;;
54881;SDS011;40775;51.448;4.742;2023-06-10T07:41:31;6.68;;;4.40;;
54881;SDS011;40775;51.448;4.742;2023-06-10T07:43:58;5.50;;;3.65;;
54881;SDS011;40775;51.448;4.742;2023-06-10T07:46:25;6.35;;;4.00;;
54881;SDS011;40775;51.448;4.742;2023-06-10T07:48:53;8.32;;;5.13;;
54881;SDS011;40775;51.448;4.742;2023-06-10T07:51:21;5.97;;;3.95;;
54881;SDS011;40775;51.448;4.742;2023-06-10T07:53:48;5.57;;;3.72;;
54881;SDS011;40775;51.448;4.742;2023-06-10T07:56:15;5.00;;;3.42;;
54881;SDS011;40775;51.448;4.742;2023-06-10T07:58:43;4.93;;;3.58;;
54881;SDS011;40775;51.448;4.742;2023-06-10T08:01:10;5.40;;;3.60;;
54881;SDS011;40775;51.448;4.742;2023-06-10T08:03:37;7.32;;;4.07;;
54881;SDS011;40775;51.448;4.742;2023-06-10T08:06:04;5.90;;;3.75;;
54881;SDS011;40775;51.448;4.742;2023-06-10T08:08:31;6.25;;;3.75;;
54881;SDS011;40775;51.448;4.742;2023-06-10T08:10:59;6.55;;;3.97;;
54881;SDS011;40775;51.448;4.742;2023-06-10T08:13:26;4.85;;;3.33;;
54881;SDS011;40775;51.448;4.742;2023-06-10T08:15:53;6.70;;;3.83;;
54881;SDS011;40775;51.448;4.742;2023-06-10T08:18:21;5.78;;;3.70;;
54881;SDS011;40775;51.448;4.742;2023-06-10T08:20:48;7.13;;;3.55;;
54881;SDS011;40775;51.448;4.742;2023-06-10T08:23:15;7.05;;;4.15;;
54881;SDS011;40775;51.448;4.742;2023-06-10T08:25:42;7.68;;;3.67;;
54881;SDS011;40775;51.448;4.742;2023-06-10T08:28:09;7.95;;;3.35;;
54881;SDS011;40775;51.448;4.742;2023-06-10T08:30:36;6.80;;;4.43;;
54881;SDS011;40775;51.448;4.742;2023-06-10T08:33:03;6.35;;;3.67;;
54881;SDS011;40775;51.448;4.742;2023-06-10T08:35:31;5.88;;;3.53;;
54881;SDS011;40775;51.448;4.742;2023-06-10T08:37:58;6.43;;;3.45;;
54881;SDS011;40775;51.448;4.742;2023-06-10T08:40:25;6.05;;;3.53;;
54881;SDS011;40775;51.448;4.742;2023-06-10T08:45:58;6.72;;;4.13;;
54881;SDS011;40775;51.448;4.742;2023-06-10T08:48:29;6.68;;;3.63;;
54881;SDS011;40775;51.448;4.742;2023-06-10T08:50:57;6.13;;;3.35;;
54881;SDS011;40775;51.448;4.742;2023-06-10T08:53:26;4.47;;;3.13;;
54881;SDS011;40775;51.448;4.742;2023-06-10T08:55:56;6.50;;;3.90;;
54881;SDS011;40775;51.448;4.742;2023-06-10T08:58:27;5.32;;;3.78;;
54881;SDS011;40775;51.448;4.742;2023-06-10T09:00:54;6.65;;;3.83;;
54881;SDS011;40775;51.448;4.742;2023-06-10T09:03:22;7.25;;;3.70;;
54881;SDS011;40775;51.448;4.742;2023-06-10T09:05:50;6.47;;;3.70;;
54881;SDS011;40775;51.448;4.742;2023-06-10T09:08:18;6.25;;;3.97;;
54881;SDS011;40775;51.448;4.742;2023-06-10T09:10:45;6.85;;;3.80;;
54881;SDS011;40775;51.448;4.742;2023-06-10T09:13:12;5.40;;;3.33;;
54881;SDS011;40775;51.448;4.742;2023-06-10T09:15:42;6.13;;;4.28;;
54881;SDS011;40775;51.448;4.742;2023-06-10T09:18:09;6.07;;;3.67;;
54881;SDS011;40775;51.448;4.742;2023-06-10T09:20:36;6.05;;;3.30;;
54881;SDS011;40775;51.448;4.742;2023-06-10T09:23:05;7.20;;;4.43;;
54881;SDS011;40775;51.448;4.742;2023-06-10T09:25:34;6.82;;;4.10;;
54881;SDS011;40775;51.448;4.742;2023-06-10T09:28:04;6.15;;;3.40;;
54881;SDS011;40775;51.448;4.742;2023-06-10T09:30:32;6.90;;;3.50;;
54881;SDS011;40775;51.448;4.742;2023-06-10T09:33:00;5.47;;;3.55;;
54881;SDS011;40775;51.448;4.742;2023-06-10T09:35:30;4.40;;;3.08;;
54881;SDS011;40775;51.448;4.742;2023-06-10T09:37:58;5.93;;;3.70;;
54881;SDS011;40775;51.448;4.742;2023-06-10T09:40:26;6.03;;;3.38;;
54881;SDS011;40775;51.448;4.742;2023-06-10T09:42:57;5.80;;;3.65;;
54881;SDS011;40775;51.448;4.742;2023-06-10T09:45:29;5.93;;;3.50;;
54881;SDS011;40775;51.448;4.742;2023-06-10T09:47:58;7.65;;;3.63;;
54881;SDS011;40775;51.448;4.742;2023-06-10T09:50:26;7.60;;;3.72;;
54881;SDS011;40775;51.448;4.742;2023-06-10T09:52:53;7.32;;;3.60;;
54881;SDS011;40775;51.448;4.742;2023-06-10T09:55:20;5.00;;;3.05;;
54881;SDS011;40775;51.448;4.742;2023-06-10T09:57:49;5.30;;;3.70;;
54881;SDS011;40775;51.448;4.742;2023-06-10T10:00:19;7.85;;;4.28;;
54881;SDS011;40775;51.448;4.742;2023-06-10T10:02:50;5.80;;;3.40;;
54881;SDS011;40775;51.448;4.742;2023-06-10T10:05:21;7.05;;;4.05;;
54881;SDS011;40775;51.448;4.742;2023-06-10T10:07:49;6.90;;;3.92;;
54881;SDS011;40775;51.448;4.742;2023-06-10T10:10:18;5.32;;;3.13;;
54881;SDS011;40775;51.448;4.742;2023-06-10T10:12:48;5.85;;;3.40;;
54881;SDS011;40775;51.448;4.742;2023-06-10T10:15:22;5.60;;;3.40;;
54881;SDS011;40775;51.448;4.742;2023-06-10T10:17:58;7.45;;;4.03;;
54881;SDS011;40775;51.448;4.742;2023-06-10T10:20:29;6.88;;;3.88;;
54881;SDS011;40775;51.448;4.742;2023-06-10T10:23:01;6.38;;;3.72;;
54881;SDS011;40775;51.448;4.742;2023-06-10T10:25:40;5.80;;;3.08;;
54881;SDS011;40775;51.448;4.742;2023-06-10T10:28:12;5.40;;;3.20;;
54881;SDS011;40775;51.448;4.742;2023-06-10T10:30:42;4.53;;;2.72;;
54881;SDS011;40775;51.448;4.742;2023-06-10T10:33:16;5.53;;;3.40;;
54881;SDS011;40775;51.448;4.742;2023-06-10T10:35:49;5.95;;;3.67;;
54881;SDS011;40775;51.448;4.742;2023-06-10T10:38:17;4.85;;;3.00;;
54881;SDS011;40775;51.448;4.742;2023-06-10T10:40:44;4.70;;;3.15;;
54881;SDS011;40775;51.448;4.742;2023-06-10T10:43:13;4.93;;;3.08;;
54881;SDS011;40775;51.448;4.742;2023-06-10T10:45:41;5.68;;;3.13;;
54881;SDS011;40775;51.448;4.742;2023-06-10T10:48:08;6.75;;;3.42;;
54881;SDS011;40775;51.448;4.742;2023-06-10T10:50:38;5.45;;;2.92;;
54881;SDS011;40775;51.448;4.742;2023-06-10T10:53:07;5.72;;;3.13;;
54881;SDS011;40775;51.448;4.742;2023-06-10T10:55:34;6.00;;;3.20;;
54881;SDS011;40775;51.448;4.742;2023-06-10T10:58:07;5.40;;;3.08;;
54881;SDS011;40775;51.448;4.742;2023-06-10T11:00:41;5.53;;;3.28;;
54881;SDS011;40775;51.448;4.742;2023-06-10T11:03:14;6.45;;;4.05;;
54881;SDS011;40775;51.448;4.742;2023-06-10T11:05:47;3.90;;;2.20;;
54881;SDS011;40775;51.448;4.742;2023-06-10T11:09:02;5.78;;;2.92;;
54881;SDS011;40775;51.448;4.742;2023-06-10T11:11:23;6.30;;;3.42;;
54881;SDS011;40775;51.448;4.742;2023-06-10T11:16:31;7.93;;;3.50;;
54881;SDS011;40775;51.448;4.742;2023-06-10T11:19:09;5.80;;;3.33;;
54881;SDS011;40775;51.448;4.742;2023-06-10T11:21:58;4.22;;;2.40;;
54881;SDS011;40775;51.448;4.742;2023-06-10T11:24:28;3.97;;;2.50;;
54881;SDS011;40775;51.448;4.742;2023-06-10T11:27:18;4.63;;;2.85;;
54881;SDS011;40775;51.448;4.742;2023-06-10T11:32:30;5.40;;;2.92;;
54881;SDS011;40775;51.448;4.742;2023-06-10T11:35:02;4.90;;;3.08;;
54881;SDS011;40775;51.448;4.742;2023-06-10T11:37:31;4.88;;;2.20;;
54881;SDS011;40775;51.448;4.742;2023-06-10T11:39:58;8.57;;;3.38;;
54881;SDS011;40775;51.448;4.742;2023-06-10T11:42:25;4.38;;;2.65;;
54881;SDS011;40775;51.448;4.742;2023-06-10T11:44:53;4.53;;;2.65;;
54881;SDS011;40775;51.448;4.742;2023-06-10T11:47:21;5.28;;;3.45;;
54881;SDS011;40775;51.448;4.742;2023-06-10T11:49:57;4.78;;;3.35;;
54881;SDS011;40775;51.448;4.742;2023-06-10T11:52:28;5.30;;;2.70;;
54881;SDS011;40775;51.448;4.742;2023-06-10T11:54:58;5.22;;;3.63;;
54881;SDS011;40775;51.448;4.742;2023-06-10T11:57:29;5.15;;;2.80;;
54881;SDS011;40775;51.448;4.742;2023-06-10T12:00:05;4.65;;;3.13;;
54881;SDS011;40775;51.448;4.742;2023-06-10T12:02:33;7.53;;;3.47;;
54881;SDS011;40775;51.448;4.742;2023-06-10T12:05:13;6.03;;;3.17;;
54881;SDS011;40775;51.448;4.742;2023-06-10T12:07:41;5.72;;;3.40;;
54881;SDS011;40775;51.448;4.742;2023-06-10T12:10:08;5.90;;;3.05;;
54881;SDS011;40775;51.448;4.742;2023-06-10T12:12:52;4.68;;;3.00;;
54881;SDS011;40775;51.448;4.742;2023-06-10T12:15:25;6.65;;;3.03;;
54881;SDS011;40775;51.448;4.742;2023-06-10T12:17:53;5.43;;;3.10;;
54881;SDS011;40775;51.448;4.742;2023-06-10T12:20:30;4.88;;;2.67;;
54881;SDS011;40775;51.448;4.742;2023-06-10T12:23:00;3.97;;;2.50;;
54881;SDS011;40775;51.448;4.742;2023-06-10T12:25:35;5.88;;;3.45;;
54881;SDS011;40775;51.448;4.742;2023-06-10T12:28:05;5.63;;;3.63;;
54881;SDS011;40775;51.448;4.742;2023-06-10T12:30:37;6.00;;;3.47;;
54881;SDS011;40775;51.448;4.742;2023-06-10T12:33:04;4.95;;;2.85;;
54881;SDS011;40775;51.448;4.742;2023-06-10T12:35:49;4.97;;;2.40;;
54881;SDS011;40775;51.448;4.742;2023-06-10T12:40:53;3.58;;;2.63;;
54881;SDS011;40775;51.448;4.742;2023-06-10T12:43:22;4.78;;;3.05;;
54881;SDS011;40775;51.448;4.742;2023-06-10T12:45:50;5.38;;;3.53;;
54881;SDS011;40775;51.448;4.742;2023-06-10T12:48:21;4.85;;;2.58;;
54881;SDS011;40775;51.448;4.742;2023-06-10T12:50:54;3.83;;;2.60;;
54881;SDS011;40775;51.448;4.742;2023-06-10T12:53:24;4.90;;;3.00;;
54881;SDS011;40775;51.448;4.742;2023-06-10T12:55:55;6.30;;;3.35;;
54881;SDS011;40775;51.448;4.742;2023-06-10T12:58:24;5.60;;;3.13;;
54881;SDS011;40775;51.448;4.742;2023-06-10T13:00:51;5.32;;;3.20;;
54881;SDS011;40775;51.448;4.742;2023-06-10T13:03:21;5.95;;;2.97;;
54881;SDS011;40775;51.448;4.742;2023-06-10T13:05:48;5.40;;;2.85;;
54881;SDS011;40775;51.448;4.742;2023-06-10T13:08:15;6.05;;;3.10;;
54881;SDS011;40775;51.448;4.742;2023-06-10T13:10:42;4.88;;;2.97;;
54881;SDS011;40775;51.448;4.742;2023-06-10T13:13:09;6.15;;;2.83;;
54881;SDS011;40775;51.448;4.742;2023-06-10T13:15:36;6.90;;;2.88;;
54881;SDS011;40775;51.448;4.742;2023-06-10T13:18:09;5.45;;;2.75;;
54881;SDS011;40775;51.448;4.742;2023-06-10T13:20:38;3.83;;;2.65;;
54881;SDS011;40775;51.448;4.742;2023-06-10T13:23:06;4.63;;;2.67;;
54881;SDS011;40775;51.448;4.742;2023-06-10T13:25:33;4.70;;;2.75;;
54881;SDS011;40775;51.448;4.742;2023-06-10T13:28:00;6.72;;;3.45;;
54881;SDS011;40775;51.448;4.742;2023-06-10T13:30:30;5.55;;;2.67;;
54881;SDS011;40775;51.448;4.742;2023-06-10T13:32:58;6.03;;;3.47;;
54881;SDS011;40775;51.448;4.742;2023-06-10T13:35:25;5.40;;;3.55;;
54881;SDS011;40775;51.448;4.742;2023-06-10T13:37:52;6.82;;;2.90;;
54881;SDS011;40775;51.448;4.742;2023-06-10T13:40:19;4.28;;;2.67;;
54881;SDS011;40775;51.448;4.742;2023-06-10T13:42:46;5.28;;;3.33;;
54881;SDS011;40775;51.448;4.742;2023-06-10T13:45:17;4.60;;;2.72;;
54881;SDS011;40775;51.448;4.742;2023-06-10T13:47:44;5.47;;;3.38;;
54881;SDS011;40775;51.448;4.742;2023-06-10T13:50:11;5.35;;;2.95;;
54881;SDS011;40775;51.448;4.742;2023-06-10T13:52:39;6.47;;;3.42;;
54881;SDS011;40775;51.448;4.742;2023-06-10T13:55:06;5.43;;;2.50;;
54881;SDS011;40775;51.448;4.742;2023-06-10T13:57:35;4.28;;;2.85;;
54881;SDS011;40775;51.448;4.742;2023-06-10T14:00:02;5.55;;;3.03;;
54881;SDS011;40775;51.448;4.742;2023-06-10T14:02:29;5.65;;;2.88;;
54881;SDS011;40775;51.448;4.742;2023-06-10T14:04:57;5.72;;;3.38;;
54881;SDS011;40775;51.448;4.742;2023-06-10T14:07:24;5.30;;;3.22;;
54881;SDS011;40775;51.448;4.742;2023-06-10T14:09:52;6.30;;;3.42;;
54881;SDS011;40775;51.448;4.742;2023-06-10T14:12:19;6.43;;;3.08;;
54881;SDS011;40775;51.448;4.742;2023-06-10T14:14:46;5.20;;;3.00;;
54881;SDS011;40775;51.448;4.742;2023-06-10T14:17:13;4.35;;;2.90;;
54881;SDS011;40775;51.448;4.742;2023-06-10T14:19:40;5.68;;;3.00;;
54881;SDS011;40775;51.448;4.742;2023-06-10T14:22:07;6.38;;;3.03;;
54881;SDS011;40775;51.448;4.742;2023-06-10T14:24:35;5.63;;;3.30;;
54881;SDS011;40775;51.448;4.742;2023-06-10T14:27:02;4.20;;;2.63;;
54881;SDS011;40775;51.448;4.742;2023-06-10T14:29:30;4.15;;;2.58;;
54881;SDS011;40775;51.448;4.742;2023-06-10T14:31:58;4.72;;;2.80;;
54881;SDS011;40775;51.448;4.742;2023-06-10T14:34:25;4.93;;;2.88;;
54881;SDS011;40775;51.448;4.742;2023-06-10T14:37:01;5.90;;;2.85;;
54881;SDS011;40775;51.448;4.742;2023-06-10T14:39:30;5.07;;;3.10;;
54881;SDS011;40775;51.448;4.742;2023-06-10T14:41:58;5.38;;;2.83;;
54881;SDS011;40775;51.448;4.742;2023-06-10T14:44:26;4.90;;;2.63;;
54881;SDS011;40775;51.448;4.742;2023-06-10T14:46:53;5.18;;;3.30;;
54881;SDS011;40775;51.448;4.742;2023-06-10T14:49:20;6.25;;;3.28;;
54881;SDS011;40775;51.448;4.742;2023-06-10T14:51:47;4.00;;;2.55;;
54881;SDS011;40775;51.448;4.742;2023-06-10T14:54:16;5.55;;;2.85;;
54881;SDS011;40775;51.448;4.742;2023-06-10T14:56:43;5.13;;;3.05;;
54881;SDS011;40775;51.448;4.742;2023-06-10T14:59:10;5.65;;;3.20;;
54881;SDS011;40775;51.448;4.742;2023-06-10T15:01:37;7.57;;;3.72;;
54881;SDS011;40775;51.448;4.742;2023-06-10T15:04:04;7.20;;;3.28;;
54881;SDS011;40775;51.448;4.742;2023-06-10T15:06:31;4.68;;;2.53;;
54881;SDS011;40775;51.448;4.742;2023-06-10T15:08:58;6.28;;;2.45;;
54881;SDS011;40775;51.448;4.742;2023-06-10T15:11:25;4.88;;;2.78;;
54881;SDS011;40775;51.448;4.742;2023-06-10T15:13:52;5.45;;;2.95;;